createdAt,value
2018-09-19T00:00:53.322Z,1011.28
2018-09-19T00:02:01.973Z,1011.32
2018-09-19T00:03:10.892Z,1011.25
2018-09-19T00:04:19.796Z,1011.29
2018-09-19T00:05:28.719Z,1011.26
2018-09-19T00:06:37.941Z,1011.26
2018-09-19T00:07:47.116Z,1011.25
2018-09-19T00:08:56.035Z,1011.3
2018-09-19T00:10:04.688Z,1011.32
2018-09-19T00:11:13.597Z,1011.34
2018-09-19T00:12:22.248Z,1011.34
2018-09-19T00:13:30.894Z,1011.34
2018-09-19T00:14:39.545Z,1011.34
2018-09-19T00:15:48.728Z,1011.37
2018-09-19T00:16:57.381Z,1011.36
2018-09-19T00:18:06.560Z,1011.34
2018-09-19T00:19:15.741Z,1011.34
2018-09-19T00:20:24.382Z,1011.32
2018-09-19T00:21:33.032Z,1011.34
2018-09-19T00:22:41.939Z,1011.34
2018-09-19T00:23:50.593Z,1011.34
2018-09-19T00:24:59.770Z,1011.33
2018-09-19T00:26:08.689Z,1011.33
2018-09-19T00:27:17.869Z,1011.33
2018-09-19T00:28:26.530Z,1011.34
2018-09-19T00:29:35.702Z,1011.3
2018-09-19T00:30:44.357Z,1011.35
2018-09-19T00:31:53.266Z,1011.37
2018-09-19T00:33:01.915Z,1011.33
2018-09-19T00:34:10.829Z,1011.35
2018-09-19T00:35:19.476Z,1011.35
2018-09-19T00:36:28.388Z,1011.36
2018-09-19T00:37:37.297Z,1011.35
2018-09-19T00:38:46.216Z,1011.35
2018-09-19T00:39:54.859Z,1011.36
2018-09-19T00:41:03.506Z,1011.39
2018-09-19T00:42:12.686Z,1011.44
2018-09-19T00:43:21.339Z,1011.39
2018-09-19T00:44:30.502Z,1011.38
2018-09-19T00:45:39.419Z,1011.39
2018-09-19T00:46:48.328Z,1011.41
2018-09-19T00:47:56.977Z,1011.4
2018-09-19T00:49:05.897Z,1011.44
2018-09-19T00:50:14.807Z,1011.39
2018-09-19T00:51:23.453Z,1011.4
2018-09-19T00:52:32.628Z,1011.39
2018-09-19T00:53:41.273Z,1011.39
2018-09-19T00:54:49.922Z,1011.4
2018-09-19T00:55:58.859Z,1011.42
2018-09-19T00:57:07.475Z,1011.44
2018-09-19T00:58:16.389Z,1011.45
2018-09-19T00:59:25.038Z,1011.47
2018-09-19T01:00:33.958Z,1011.42
2018-09-19T01:01:42.603Z,1011.44
2018-09-19T01:02:51.830Z,1011.43
2018-09-19T01:04:00.962Z,1011.41
2018-09-19T01:05:09.887Z,1011.45
2018-09-19T01:06:19.055Z,1011.44
2018-09-19T01:07:27.973Z,1011.47
2018-09-19T01:08:36.885Z,1011.48
2018-09-19T01:09:45.541Z,1011.49
2018-09-19T01:10:54.190Z,1011.47
2018-09-19T01:12:02.852Z,1011.46
2018-09-19T01:13:12.034Z,1011.46
2018-09-19T01:14:20.942Z,1011.48
2018-09-19T01:15:29.854Z,1011.51
2018-09-19T01:16:38.498Z,1011.5
2018-09-19T01:17:47.152Z,1011.52
2018-09-19T01:18:56.323Z,1011.55
2018-09-19T01:20:05.248Z,1011.52
2018-09-19T01:21:13.889Z,1011.52
2018-09-19T01:22:22.541Z,1011.55
2018-09-19T01:23:31.174Z,1011.56
2018-09-19T01:24:40.096Z,1011.56
2018-09-19T01:25:48.805Z,1011.59
2018-09-19T01:26:57.390Z,1011.61
2018-09-19T01:28:06.311Z,1011.62
2018-09-19T01:29:14.956Z,1011.64
2018-09-19T01:30:23.609Z,1011.68
2018-09-19T01:31:32.254Z,1011.67
2018-09-19T01:32:41.177Z,1011.66
2018-09-19T01:33:49.816Z,1011.69
2018-09-19T01:34:58.814Z,1011.68
2018-09-19T01:36:07.648Z,1011.71
2018-09-19T01:37:16.309Z,1011.68
2018-09-19T01:38:25.211Z,1011.68
2018-09-19T01:39:34.125Z,1011.68
2018-09-19T01:40:42.806Z,1011.68
2018-09-19T01:41:51.424Z,1011.74
2018-09-19T01:43:00.319Z,1011.78
2018-09-19T01:44:09.244Z,1011.81
2018-09-19T01:45:18.151Z,1011.81
2018-09-19T01:46:27.073Z,1011.83
2018-09-19T01:47:35.725Z,1011.84
2018-09-19T01:48:44.624Z,1011.85
2018-09-19T01:49:53.539Z,1011.89
2018-09-19T01:51:02.182Z,1011.89
2018-09-19T01:52:11.108Z,1011.93
2018-09-19T01:53:20.015Z,1011.92
2018-09-19T01:54:29.237Z,1011.9
2018-09-19T01:55:38.117Z,1011.95
2018-09-19T01:56:47.307Z,1012
2018-09-19T01:57:56.212Z,1011.98
2018-09-19T01:59:04.865Z,1011.98
2018-09-19T02:00:13.815Z,1012
2018-09-19T02:01:22.761Z,1012.02
2018-09-19T02:02:31.668Z,1012.02
2018-09-19T02:03:40.316Z,1012.06
2018-09-19T02:04:48.953Z,1012.05
2018-09-19T02:05:57.602Z,1012.07
2018-09-19T02:07:06.524Z,1012.1
2018-09-19T02:08:15.442Z,1012.05
2018-09-19T02:09:24.356Z,1012.08
2018-09-19T02:10:33.000Z,1012.07
2018-09-19T02:11:41.653Z,1012.07
2018-09-19T02:12:50.297Z,1012.04
2018-09-19T02:13:59.212Z,1012.08
2018-09-19T02:15:07.854Z,1012.03
2018-09-19T02:16:16.503Z,1012.04
2018-09-19T02:17:25.146Z,1012.05
2018-09-19T02:18:34.060Z,1012.01
2018-09-19T02:19:43.245Z,1012.08
2018-09-19T02:20:52.949Z,1012.1
2018-09-19T02:22:01.860Z,1012.09
2018-09-19T02:23:10.785Z,1012.1
2018-09-19T02:24:19.694Z,1012.1
2018-09-19T02:25:28.609Z,1012.1
2018-09-19T02:26:37.790Z,1012.08
2018-09-19T02:27:47.262Z,1012.07
2018-09-19T02:28:56.174Z,1012.12
2018-09-19T02:30:05.094Z,1012.09
2018-09-19T02:31:14.844Z,1012.1
2018-09-19T02:32:24.031Z,1012.1
2018-09-19T02:33:33.233Z,1012.09
2018-09-19T02:34:42.141Z,1012.06
2018-09-19T02:35:50.797Z,1012.06
2018-09-19T02:36:59.959Z,1012.08
2018-09-19T02:38:09.184Z,1012.08
2018-09-19T02:39:18.096Z,1012.06
2018-09-19T02:40:26.746Z,1012.09
2018-09-19T02:41:35.972Z,1012.09
2018-09-19T02:42:44.562Z,1012.13
2018-09-19T02:43:53.466Z,1012.1
2018-09-19T02:45:02.397Z,1012.08
2018-09-19T02:46:11.316Z,1012.08
2018-09-19T02:47:20.226Z,1012.07
2018-09-19T02:48:29.140Z,1012.07
2018-09-19T02:49:38.327Z,1012.08
2018-09-19T02:50:47.241Z,1012.1
2018-09-19T02:51:55.886Z,1012.09
2018-09-19T02:53:04.817Z,1012.14
2018-09-19T02:54:13.728Z,1012.15
2018-09-19T02:55:22.924Z,1012.15
2018-09-19T02:56:32.097Z,1012.17
2018-09-19T02:57:41.022Z,1012.18
2018-09-19T02:58:49.951Z,1012.13
2018-09-19T02:59:58.606Z,1012.13
2018-09-19T03:01:07.513Z,1012.16
2018-09-19T03:02:16.482Z,1012.14
2018-09-19T03:03:25.339Z,1012.16
2018-09-19T03:04:34.258Z,1012.14
2018-09-19T03:05:43.185Z,1012.12
2018-09-19T03:06:52.087Z,1012.14
2018-09-19T03:08:00.741Z,1012.16
2018-09-19T03:09:09.911Z,1012.16
2018-09-19T03:10:18.572Z,1012.16
2018-09-19T03:11:27.213Z,1012.13
2018-09-19T03:12:35.862Z,1012.12
2018-09-19T03:13:45.294Z,1012.1
2018-09-19T03:14:54.512Z,1012.09
2018-09-19T03:16:03.678Z,1012.12
2018-09-19T03:17:12.885Z,1012.11
2018-09-19T03:18:21.891Z,1012.08
2018-09-19T03:19:30.817Z,1012.06
2018-09-19T03:20:39.477Z,1012.05
2018-09-19T03:21:48.394Z,1012.05
2018-09-19T03:22:57.592Z,1012.04
2018-09-19T03:24:06.759Z,1012.04
2018-09-19T03:25:15.679Z,1012.03
2018-09-19T03:26:24.596Z,1012.06
2018-09-19T03:27:33.829Z,1012.03
2018-09-19T03:28:42.998Z,1011.98
2018-09-19T03:29:51.651Z,1011.99
2018-09-19T03:31:00.565Z,1011.96
2018-09-19T03:32:09.507Z,1012
2018-09-19T03:33:18.419Z,1011.97
2018-09-19T03:34:27.338Z,1011.98
2018-09-19T03:35:36.308Z,1011.98
2018-09-19T03:36:44.929Z,1011.95
2018-09-19T03:37:53.844Z,1011.97
2018-09-19T03:39:03.026Z,1011.94
2018-09-19T03:40:11.935Z,1012
2018-09-19T03:41:20.579Z,1011.98
2018-09-19T03:42:29.238Z,1011.96
2018-09-19T03:43:37.881Z,1011.94
2018-09-19T03:44:47.075Z,1011.96
2018-09-19T03:45:55.975Z,1011.94
2018-09-19T03:47:04.905Z,1011.94
2018-09-19T03:48:14.124Z,1011.93
2018-09-19T03:49:23.032Z,1011.94
2018-09-19T03:50:32.217Z,1011.92
2018-09-19T03:51:41.420Z,1011.95
2018-09-19T03:52:50.340Z,1011.98
2018-09-19T03:53:59.528Z,1011.95
2018-09-19T03:55:08.957Z,1011.97
2018-09-19T03:56:17.607Z,1011.97
2018-09-19T03:57:26.523Z,1011.99
2018-09-19T03:58:35.710Z,1012
2018-09-19T03:59:44.894Z,1012.02
2018-09-19T04:00:53.531Z,1012.05
2018-09-19T04:02:02.446Z,1012.11
2018-09-19T04:03:11.353Z,1012.08
2018-09-19T04:04:20.010Z,1012.1
2018-09-19T04:05:28.911Z,1012.1
2018-09-19T04:06:37.841Z,1012.05
2018-09-19T04:07:46.484Z,1012.05
2018-09-19T04:08:55.678Z,1012.05
2018-09-19T04:10:04.320Z,1012.05
2018-09-19T04:11:13.235Z,1012.07
2018-09-19T04:12:22.428Z,1012.11
2018-09-19T04:13:31.608Z,1012.13
2018-09-19T04:14:40.784Z,1012.1
2018-09-19T04:15:49.432Z,1012.1
2018-09-19T04:16:58.344Z,1012.11
2018-09-19T04:18:06.994Z,1012.13
2018-09-19T04:19:15.637Z,1012.14
2018-09-19T04:20:24.834Z,1012.17
2018-09-19T04:21:33.491Z,1012.12
2018-09-19T04:22:42.412Z,1012.16
2018-09-19T04:23:51.046Z,1012.13
2018-09-19T04:24:59.960Z,1012.15
2018-09-19T04:26:08.888Z,1012.18
2018-09-19T04:27:17.806Z,1012.16
2018-09-19T04:28:26.452Z,1012.19
2018-09-19T04:29:35.363Z,1012.15
2018-09-19T04:30:44.018Z,1012.2
2018-09-19T04:31:52.945Z,1012.18
2018-09-19T04:33:01.866Z,1012.15
2018-09-19T04:34:10.773Z,1012.16
2018-09-19T04:35:19.419Z,1012.15
2018-09-19T04:36:28.062Z,1012.14
2018-09-19T04:37:37.267Z,1012.17
2018-09-19T04:38:46.445Z,1012.15
2018-09-19T04:39:55.622Z,1012.17
2018-09-19T04:41:04.536Z,1012.17
2018-09-19T04:42:14.014Z,1012.18
2018-09-19T04:43:22.657Z,1012.17
2018-09-19T04:44:31.845Z,1012.17
2018-09-19T04:45:40.482Z,1012.18
2018-09-19T04:46:49.418Z,1012.16
2018-09-19T04:47:58.067Z,1012.2
2018-09-19T04:49:07.263Z,1012.2
2018-09-19T04:50:15.901Z,1012.2
2018-09-19T04:51:24.642Z,1012.19
2018-09-19T04:52:34.057Z,1012.18
2018-09-19T04:53:42.968Z,1012.18
2018-09-19T04:54:51.616Z,1012.18
2018-09-19T04:56:00.519Z,1012.15
2018-09-19T04:57:09.171Z,1012.12
2018-09-19T04:58:18.367Z,1012.15
2018-09-19T04:59:27.300Z,1012.14
2018-09-19T05:00:35.937Z,1012.13
2018-09-19T05:01:44.590Z,1012.1
2018-09-19T05:02:54.556Z,1012.12
2018-09-19T05:04:03.211Z,1012.13
2018-09-19T05:05:11.846Z,1012.11
2018-09-19T05:06:20.494Z,1012.1
2018-09-19T05:07:29.405Z,1012.11
2018-09-19T05:08:38.064Z,1012.12
2018-09-19T05:09:47.237Z,1012.13
2018-09-19T05:10:55.882Z,1012.14
2018-09-19T05:12:05.328Z,1012.16
2018-09-19T05:13:15.354Z,1012.18
2018-09-19T05:14:24.003Z,1012.16
2018-09-19T05:15:32.920Z,1012.19
2018-09-19T05:16:41.563Z,1012.21
2018-09-19T05:17:50.740Z,1012.21
2018-09-19T05:18:59.392Z,1012.2
2018-09-19T05:20:08.314Z,1012.25
2018-09-19T05:21:16.948Z,1012.26
2018-09-19T05:22:25.847Z,1012.23
2018-09-19T05:23:34.511Z,1012.22
2018-09-19T05:24:43.149Z,1012.25
2018-09-19T05:25:51.797Z,1012.25
2018-09-19T05:27:00.441Z,1012.29
2018-09-19T05:28:09.091Z,1012.31
2018-09-19T05:29:18.041Z,1012.3
2018-09-19T05:30:26.972Z,1012.32
2018-09-19T05:31:35.943Z,1012.3
2018-09-19T05:32:44.921Z,1012.31
2018-09-19T05:33:53.573Z,1012.33
2018-09-19T05:35:02.488Z,1012.34
2018-09-19T05:36:11.682Z,1012.37
2018-09-19T05:37:20.587Z,1012.4
2018-09-19T05:38:29.501Z,1012.42
2018-09-19T05:39:38.148Z,1012.4
2018-09-19T05:40:47.063Z,1012.4
2018-09-19T05:41:55.700Z,1012.42
2018-09-19T05:43:04.883Z,1012.39
2018-09-19T05:44:13.796Z,1012.37
2018-09-19T05:45:22.443Z,1012.34
2018-09-19T05:46:31.131Z,1012.34
2018-09-19T05:47:39.731Z,1012.37
2018-09-19T05:48:48.638Z,1012.37
2018-09-19T05:49:57.632Z,1012.36
2018-09-19T05:51:06.229Z,1012.37
2018-09-19T05:52:14.878Z,1012.35
2018-09-19T05:53:23.517Z,1012.4
2018-09-19T05:54:32.226Z,1012.38
2018-09-19T05:55:41.563Z,1012.37
2018-09-19T05:56:50.209Z,1012.37
2018-09-19T05:57:58.853Z,1012.36
2018-09-19T05:59:07.761Z,1012.32
2018-09-19T06:00:16.704Z,1012.35
2018-09-19T06:01:25.581Z,1012.3
2018-09-19T06:02:34.231Z,1012.32
2018-09-19T06:03:42.883Z,1012.32
2018-09-19T06:04:51.548Z,1012.29
2018-09-19T06:06:00.534Z,1012.3
2018-09-19T06:07:09.465Z,1012.24
2018-09-19T06:08:18.385Z,1012.23
2018-09-19T06:09:27.022Z,1012.21
2018-09-19T06:10:35.666Z,1012.23
2018-09-19T06:11:44.320Z,1012.22
2018-09-19T06:12:53.081Z,1012.23
2018-09-19T06:14:02.064Z,1012.23
2018-09-19T06:15:10.705Z,1012.22
2018-09-19T06:16:19.357Z,1012.25
2018-09-19T06:17:28.522Z,1012.23
2018-09-19T06:18:37.175Z,1012.18
2018-09-19T06:19:45.818Z,1012.19
2018-09-19T06:20:54.742Z,1012.15
2018-09-19T06:22:03.376Z,1012.14
2018-09-19T06:23:12.027Z,1012.1
2018-09-19T06:24:20.952Z,1012.15
2018-09-19T06:25:29.867Z,1012.11
2018-09-19T06:26:39.046Z,1012.16
2018-09-19T06:27:47.947Z,1012.15
2018-09-19T06:28:56.602Z,1012.15
2018-09-19T06:30:05.243Z,1012.17
2018-09-19T06:31:13.899Z,1012.19
2018-09-19T06:32:22.809Z,1012.24
2018-09-19T06:33:31.792Z,1012.24
2018-09-19T06:34:40.631Z,1012.19
2018-09-19T06:35:49.559Z,1012.22
2018-09-19T06:36:58.520Z,1012.21
2018-09-19T06:38:07.112Z,1012.17
2018-09-19T06:39:16.294Z,1012.17
2018-09-19T06:40:25.290Z,1012.17
2018-09-19T06:41:34.174Z,1012.18
2018-09-19T06:42:43.109Z,1012.18
2018-09-19T06:43:51.728Z,1012.12
2018-09-19T06:45:00.628Z,1012.05
2018-09-19T06:46:09.284Z,1012.11
2018-09-19T06:47:17.938Z,1012.08
2018-09-19T06:48:26.589Z,1012.06
2018-09-19T06:49:35.488Z,1012.06
2018-09-19T06:50:44.407Z,1012.04
2018-09-19T06:51:53.330Z,1012.03
2018-09-19T06:53:01.966Z,1012.04
2018-09-19T06:54:10.603Z,1012.03
2018-09-19T06:55:19.524Z,1011.97
2018-09-19T06:56:28.170Z,1011.97
2018-09-19T06:57:36.825Z,1011.95
2018-09-19T06:58:46.332Z,1011.93
2018-09-19T06:59:55.247Z,1011.89
2018-09-19T07:01:04.159Z,1011.86
2018-09-19T07:02:13.262Z,1011.85
2018-09-19T07:03:22.013Z,1011.79
2018-09-19T07:04:30.647Z,1011.81
2018-09-19T07:05:40.129Z,1011.79
2018-09-19T07:06:49.199Z,1011.77
2018-09-19T07:07:58.144Z,1011.78
2018-09-19T07:09:07.157Z,1011.77
2018-09-19T07:10:15.806Z,1011.85
2018-09-19T07:11:24.452Z,1011.87
2018-09-19T07:12:33.366Z,1011.88
2018-09-19T07:13:42.277Z,1011.95
2018-09-19T07:14:50.929Z,1011.99
2018-09-19T07:15:59.576Z,1012.01
2018-09-19T07:17:08.229Z,1012.05
2018-09-19T07:18:16.880Z,1012.05
2018-09-19T07:19:25.524Z,1012.03
2018-09-19T07:20:34.435Z,1012.03
2018-09-19T07:21:43.078Z,1012.01
2018-09-19T07:22:51.730Z,1012.05
2018-09-19T07:24:00.642Z,1012.06
2018-09-19T07:25:09.576Z,1012.09
2018-09-19T07:26:18.956Z,1012.12
2018-09-19T07:27:27.608Z,1012.17
2018-09-19T07:28:36.522Z,1012.15
2018-09-19T07:29:45.431Z,1012.18
2018-09-19T07:30:54.682Z,1012.13
2018-09-19T07:32:03.672Z,1012.09
2018-09-19T07:33:12.319Z,1012.09
2018-09-19T07:34:21.500Z,1012.13
2018-09-19T07:35:30.142Z,1012.06
2018-09-19T07:36:39.071Z,1012.09
2018-09-19T07:37:47.730Z,1012.07
2018-09-19T07:38:56.639Z,1012.03
2018-09-19T07:40:05.310Z,1012.03
2018-09-19T07:41:14.217Z,1012.02
2018-09-19T07:42:23.129Z,1011.98
2018-09-19T07:43:32.049Z,1011.92
2018-09-19T07:44:40.764Z,1011.96
2018-09-19T07:45:49.698Z,1011.94
2018-09-19T07:46:58.263Z,1011.96
2018-09-19T07:48:07.708Z,1012.01
2018-09-19T07:49:16.357Z,1012.06
2018-09-19T07:50:24.999Z,1012.11
2018-09-19T07:51:33.656Z,1012.12
2018-09-19T07:52:42.832Z,1012.13
2018-09-19T07:53:51.753Z,1012.18
2018-09-19T07:55:00.401Z,1012.18
2018-09-19T07:56:09.395Z,1012.21
2018-09-19T07:57:18.570Z,1012.27
2018-09-19T07:58:27.483Z,1012.26
2018-09-19T07:59:36.405Z,1012.31
2018-09-19T08:00:45.186Z,1012.32
2018-09-19T08:01:54.116Z,1012.28
2018-09-19T08:03:02.759Z,1012.27
2018-09-19T08:04:11.677Z,1012.28
2018-09-19T08:05:20.328Z,1012.29
2018-09-19T08:06:28.976Z,1012.34
2018-09-19T08:07:37.892Z,1012.36
2018-09-19T08:08:46.799Z,1012.35
2018-09-19T08:09:55.455Z,1012.33
2018-09-19T08:11:04.630Z,1012.37
2018-09-19T08:12:13.290Z,1012.34
2018-09-19T08:13:22.464Z,1012.33
2018-09-19T08:14:31.113Z,1012.37
2018-09-19T08:15:40.285Z,1012.39
2018-09-19T08:16:49.285Z,1012.41
2018-09-19T08:17:58.273Z,1012.43
2018-09-19T08:19:06.923Z,1012.42
2018-09-19T08:20:15.573Z,1012.43
2018-09-19T08:21:24.552Z,1012.43
2018-09-19T08:22:33.470Z,1012.37
2018-09-19T08:23:42.796Z,1012.35
2018-09-19T08:24:51.983Z,1012.32
2018-09-19T08:26:00.626Z,1012.29
2018-09-19T08:27:09.566Z,1012.25
2018-09-19T08:28:18.545Z,1012.19
2018-09-19T08:29:27.157Z,1012.16
2018-09-19T08:30:36.334Z,1012.14
2018-09-19T08:31:45.822Z,1012.16
2018-09-19T08:32:54.473Z,1012.21
2018-09-19T08:34:03.125Z,1012.24
2018-09-19T08:35:11.778Z,1012.31
2018-09-19T08:36:20.428Z,1012.31
2018-09-19T08:37:29.615Z,1012.34
2018-09-19T08:38:38.263Z,1012.32
2018-09-19T08:39:47.189Z,1012.29
2018-09-19T08:40:55.835Z,1012.26
2018-09-19T08:42:04.752Z,1012.21
2018-09-19T08:43:13.937Z,1012.24
2018-09-19T08:44:22.596Z,1012.2
2018-09-19T08:45:31.505Z,1012.22
2018-09-19T08:46:40.165Z,1012.25
2018-09-19T08:47:48.813Z,1012.24
2018-09-19T08:48:57.467Z,1012.24
2018-09-19T08:50:06.114Z,1012.17
2018-09-19T08:51:14.765Z,1012.18
2018-09-19T08:52:23.694Z,1012.12
2018-09-19T08:53:32.335Z,1012.1
2018-09-19T08:54:40.987Z,1012.08
2018-09-19T08:55:50.186Z,1012.07
2018-09-19T08:56:58.867Z,1012.07
2018-09-19T08:58:07.843Z,1012.03
2018-09-19T08:59:16.764Z,1012
2018-09-19T09:00:25.412Z,1011.99
2018-09-19T09:01:34.344Z,1011.97
2018-09-19T09:02:43.497Z,1012
2018-09-19T09:03:52.148Z,1011.95
2018-09-19T09:05:01.322Z,1011.91
2018-09-19T09:06:10.308Z,1011.97
2018-09-19T09:07:18.945Z,1011.95
2018-09-19T09:08:27.606Z,1011.96
2018-09-19T09:09:37.056Z,1011.89
2018-09-19T09:10:45.968Z,1011.88
2018-09-19T09:11:54.896Z,1011.83
2018-09-19T09:13:03.536Z,1011.85
2018-09-19T09:14:12.189Z,1011.85
2018-09-19T09:15:21.102Z,1011.85
2018-09-19T09:16:29.760Z,1011.89
2018-09-19T09:17:38.661Z,1011.86
2018-09-19T09:18:47.315Z,1011.83
2018-09-19T09:19:56.315Z,1011.86
2018-09-19T09:21:05.260Z,1011.83
2018-09-19T09:22:14.178Z,1011.83
2018-09-19T09:23:22.831Z,1011.85
2018-09-19T09:24:31.482Z,1011.86
2018-09-19T09:25:40.407Z,1011.87
2018-09-19T09:26:49.677Z,1011.83
2018-09-19T09:27:59.407Z,1011.82
2018-09-19T09:29:08.057Z,1011.82
2018-09-19T09:30:17.248Z,1011.79
2018-09-19T09:31:26.494Z,1011.79
2018-09-19T09:32:35.403Z,1011.77
2018-09-19T09:33:44.324Z,1011.84
2018-09-19T09:34:52.972Z,1011.81
2018-09-19T09:36:01.909Z,1011.76
2018-09-19T09:37:10.580Z,1011.84
2018-09-19T09:38:19.236Z,1011.79
2018-09-19T09:39:28.407Z,1011.77
2018-09-19T09:40:37.432Z,1011.78
2018-09-19T09:41:45.990Z,1011.72
2018-09-19T09:42:55.164Z,1011.72
2018-09-19T09:44:03.808Z,1011.74
2018-09-19T09:45:12.458Z,1011.73
2018-09-19T09:46:21.115Z,1011.71
2018-09-19T09:47:29.767Z,1011.68
2018-09-19T09:48:38.425Z,1011.66
2018-09-19T09:49:47.069Z,1011.65
2018-09-19T09:50:55.999Z,1011.66
2018-09-19T09:52:04.656Z,1011.69
2018-09-19T09:53:13.908Z,1011.68
2018-09-19T09:54:22.484Z,1011.66
2018-09-19T09:55:31.138Z,1011.59
2018-09-19T09:56:39.794Z,1011.6
2018-09-19T09:57:48.451Z,1011.63
2018-09-19T09:58:57.366Z,1011.56
2018-09-19T10:00:06.019Z,1011.53
2018-09-19T10:01:14.667Z,1011.52
2018-09-19T10:02:23.352Z,1011.5
2018-09-19T10:03:32.791Z,1011.45
2018-09-19T10:04:41.435Z,1011.45
2018-09-19T10:05:50.087Z,1011.46
2018-09-19T10:06:58.765Z,1011.41
2018-09-19T10:08:07.691Z,1011.41
2018-09-19T10:09:16.343Z,1011.39
2018-09-19T10:10:25.258Z,1011.46
2018-09-19T10:11:33.902Z,1011.42
2018-09-19T10:12:42.558Z,1011.43
2018-09-19T10:13:51.546Z,1011.46
2018-09-19T10:15:00.744Z,1011.38
2018-09-19T10:16:09.647Z,1011.34
2018-09-19T10:17:18.310Z,1011.34
2018-09-19T10:18:27.057Z,1011.28
2018-09-19T10:19:35.895Z,1011.26
2018-09-19T10:20:44.563Z,1011.26
2018-09-19T10:21:53.219Z,1011.27
2018-09-19T10:23:01.868Z,1011.24
2018-09-19T10:24:10.789Z,1011.26
2018-09-19T10:25:19.706Z,1011.24
2018-09-19T10:26:28.354Z,1011.17
2018-09-19T10:27:37.006Z,1011.04
2018-09-19T10:28:45.662Z,1011.15
2018-09-19T10:29:54.585Z,1011.11
2018-09-19T10:31:03.499Z,1011.09
2018-09-19T10:32:12.155Z,1011.16
2018-09-19T10:33:21.073Z,1011.18
2018-09-19T10:34:29.726Z,1011.21
2018-09-19T10:35:38.641Z,1011.19
2018-09-19T10:36:47.560Z,1011.23
2018-09-19T10:37:56.212Z,1011.21
2018-09-19T10:39:05.133Z,1011.1
2018-09-19T10:40:14.048Z,1011.11
2018-09-19T10:41:22.698Z,1011.13
2018-09-19T10:42:31.605Z,1011.11
2018-09-19T10:43:40.258Z,1011.09
2018-09-19T10:44:48.916Z,1011.15
2018-09-19T10:45:57.836Z,1011.17
2018-09-19T10:47:06.490Z,1011.16
2018-09-19T10:48:15.392Z,1011.21
2018-09-19T10:49:24.088Z,1011.13
2018-09-19T10:50:33.079Z,1011.15
2018-09-19T10:51:41.734Z,1011.17
2018-09-19T10:52:50.384Z,1011.24
2018-09-19T10:53:59.039Z,1011.17
2018-09-19T10:55:07.694Z,1011.28
2018-09-19T10:56:16.348Z,1011.25
2018-09-19T10:57:25.526Z,1011.25
2018-09-19T10:58:34.180Z,1011.28
2018-09-19T10:59:42.832Z,1011.24
2018-09-19T11:00:52.014Z,1011.28
2018-09-19T11:02:00.938Z,1011.2
2018-09-19T11:03:09.848Z,1011.22
2018-09-19T11:04:18.503Z,1011.14
2018-09-19T11:05:27.160Z,1011.08
2018-09-19T11:06:36.125Z,1011.16
2018-09-19T11:07:44.768Z,1011.17
2018-09-19T11:08:53.824Z,1011.05
2018-09-19T11:10:02.475Z,1011.07
2018-09-19T11:11:11.165Z,1011.03
2018-09-19T11:12:20.349Z,1011.04
2018-09-19T11:13:29.293Z,1011.03
2018-09-19T11:14:38.233Z,1011.06
2018-09-19T11:15:48.016Z,1011.1
2018-09-19T11:16:56.762Z,1011.15
2018-09-19T11:18:06.072Z,1011.06
2018-09-19T11:19:14.817Z,1011.06
2018-09-19T11:20:23.510Z,1011.07
2018-09-19T11:21:32.177Z,1011.09
2018-09-19T11:22:40.895Z,1011.02
2018-09-19T11:23:50.098Z,1011.09
2018-09-19T11:24:59.706Z,1011.09
2018-09-19T11:26:08.775Z,1011.12
2018-09-19T11:27:17.907Z,1011.2
2018-09-19T11:28:27.027Z,1011.19
2018-09-19T11:29:35.812Z,1011.16
2018-09-19T11:30:44.474Z,1011.09
2018-09-19T11:31:53.124Z,1011.22
2018-09-19T11:33:02.044Z,1011.22
2018-09-19T11:34:10.726Z,1011.2
2018-09-19T11:35:19.374Z,1011.25
2018-09-19T11:36:28.035Z,1011.23
2018-09-19T11:37:36.948Z,1011.31
2018-09-19T11:38:45.867Z,1011.23
2018-09-19T11:39:54.513Z,1011.32
2018-09-19T11:41:03.166Z,1011.22
2018-09-19T11:42:12.340Z,1011.26
2018-09-19T11:43:21.308Z,1011.36
2018-09-19T11:44:29.919Z,1011.25
2018-09-19T11:45:38.576Z,1011.23
2018-09-19T11:46:47.227Z,1011.22
2018-09-19T11:47:55.886Z,1011.2
2018-09-19T11:49:04.790Z,1011.3
2018-09-19T11:50:13.446Z,1011.28
2018-09-19T11:51:22.356Z,1011.31
2018-09-19T11:52:31.017Z,1011.31
2018-09-19T11:53:39.679Z,1011.2
2018-09-19T11:54:48.332Z,1011.25
2018-09-19T11:55:56.987Z,1011.2
2018-09-19T11:57:05.636Z,1011.2
2018-09-19T11:58:14.326Z,1011.24
2018-09-19T11:59:22.998Z,1011.22
2018-09-19T12:00:31.634Z,1011.24
2018-09-19T12:01:40.277Z,1011.25
2018-09-19T12:02:49.191Z,1011.3
2018-09-19T12:03:57.850Z,1011.25
2018-09-19T12:05:06.755Z,1011.23
2018-09-19T12:06:15.419Z,1011.2
2018-09-19T12:07:24.111Z,1011.19
2018-09-19T12:08:32.716Z,1011.16
2018-09-19T12:09:41.367Z,1011.18
2018-09-19T12:10:50.030Z,1011.15
2018-09-19T12:11:58.675Z,1011.14
2018-09-19T12:13:07.321Z,1011.09
2018-09-19T12:14:15.973Z,1011.07
2018-09-19T12:15:24.898Z,1011.03
2018-09-19T12:16:33.834Z,1011
2018-09-19T12:17:42.744Z,1011
2018-09-19T12:18:51.401Z,1010.99
2018-09-19T12:20:00.044Z,1010.95
2018-09-19T12:21:08.705Z,1010.99
2018-09-19T12:22:17.370Z,1010.93
2018-09-19T12:23:26.027Z,1010.94
2018-09-19T12:24:34.670Z,1010.94
2018-09-19T12:25:43.332Z,1010.97
2018-09-19T12:26:52.246Z,1010.98
2018-09-19T12:28:00.899Z,1010.96
2018-09-19T12:29:09.543Z,1010.94
2018-09-19T12:30:18.199Z,1010.95
2018-09-19T12:31:26.856Z,1010.97
2018-09-19T12:32:35.510Z,1010.95
2018-09-19T12:33:44.165Z,1010.89
2018-09-19T12:34:52.807Z,1010.88
2018-09-19T12:36:01.754Z,1010.92
2018-09-19T12:37:10.397Z,1010.86
2018-09-19T12:38:19.060Z,1010.9
2018-09-19T12:39:27.772Z,1010.91
2018-09-19T12:40:36.364Z,1010.93
2018-09-19T12:41:45.277Z,1010.78
2018-09-19T12:42:53.939Z,1010.79
2018-09-19T12:44:02.586Z,1010.79
2018-09-19T12:45:11.240Z,1010.83
2018-09-19T12:46:19.896Z,1010.73
2018-09-19T12:47:28.552Z,1010.77
2018-09-19T12:48:37.459Z,1010.82
2018-09-19T12:49:46.107Z,1010.72
2018-09-19T12:50:54.760Z,1010.74
2018-09-19T12:52:03.414Z,1010.76
2018-09-19T12:53:12.122Z,1010.77
2018-09-19T12:54:20.725Z,1010.75
2018-09-19T12:55:29.383Z,1010.76
2018-09-19T12:56:38.028Z,1010.7
2018-09-19T12:57:46.955Z,1010.72
2018-09-19T12:58:55.603Z,1010.67
2018-09-19T13:00:04.261Z,1010.7
2018-09-19T13:01:12.909Z,1010.71
2018-09-19T13:02:22.116Z,1010.68
2018-09-19T13:03:31.095Z,1010.59
2018-09-19T13:04:39.749Z,1010.65
2018-09-19T13:05:48.400Z,1010.63
2018-09-19T13:06:57.053Z,1010.65
2018-09-19T13:08:05.709Z,1010.63
2018-09-19T13:09:14.363Z,1010.61
2018-09-19T13:10:23.018Z,1010.55
2018-09-19T13:11:31.669Z,1010.62
2018-09-19T13:12:40.321Z,1010.57
2018-09-19T13:13:48.976Z,1010.59
2018-09-19T13:14:57.899Z,1010.57
2018-09-19T13:16:06.547Z,1010.57
2018-09-19T13:17:15.197Z,1010.59
2018-09-19T13:18:24.113Z,1010.63
2018-09-19T13:19:32.770Z,1010.58
2018-09-19T13:20:41.420Z,1010.51
2018-09-19T13:21:50.079Z,1010.58
2018-09-19T13:22:58.986Z,1010.61
2018-09-19T13:24:07.642Z,1010.54
2018-09-19T13:25:16.815Z,1010.59
2018-09-19T13:26:25.725Z,1010.54
2018-09-19T13:27:34.374Z,1010.56
2018-09-19T13:28:43.028Z,1010.54
2018-09-19T13:29:51.682Z,1010.44
2018-09-19T13:31:00.333Z,1010.52
2018-09-19T13:32:09.251Z,1010.51
2018-09-19T13:33:18.161Z,1010.44
2018-09-19T13:34:26.816Z,1010.4
2018-09-19T13:35:35.471Z,1010.44
2018-09-19T13:36:44.124Z,1010.39
2018-09-19T13:37:53.034Z,1010.36
2018-09-19T13:39:01.691Z,1010.43
2018-09-19T13:40:10.345Z,1010.4
2018-09-19T13:41:18.996Z,1010.38
2018-09-19T13:42:27.647Z,1010.44
2018-09-19T13:43:36.311Z,1010.5
2018-09-19T13:44:44.954Z,1010.5
2018-09-19T13:45:53.609Z,1010.48
2018-09-19T13:47:02.262Z,1010.39
2018-09-19T13:48:10.912Z,1010.4
2018-09-19T13:49:19.565Z,1010.32
2018-09-19T13:50:28.218Z,1010.3
2018-09-19T13:51:36.874Z,1010.3
2018-09-19T13:52:45.526Z,1010.36
2018-09-19T13:53:54.447Z,1010.36
2018-09-19T13:55:03.106Z,1010.24
2018-09-19T13:56:12.283Z,1010.24